ダブリン の空港の天気 - METARとTAF

ダブリン空港 ( EIDW / DUB ) - アイルランド ダブリン
飛行場実況気象(Metar)
観測時間10/16 08:30 GMT (10/16 07:30 UTC)
風向・風速西南西 4m/s
視程10km以上
天気現象
少しの雲 雲底高度 550m
気温7℃
湿度93%
気圧998hPa
METAREIDW 160730Z 25007KT 200V280 9999 FEW018 07/06 Q0998 NOSIG
過去の天気等 Google飛行場航空写真 Wunderground天気予報

過去48時間のMETAR

飛行場予報(TAF)
発表時間: 10/16 06:00 GMT (10/16 05:00 UTC)
予報対象時間: 16日7時 GMT ~ 17日7時 GMT
風向・風速西 6m/s
視程10km以上
少しの雲 雲底高度 490m
全天の4割程度の雲 雲底高度 910m
16日14時 GMT ~ 16日16時 GMT に徐々に
風向・風速南西 4m/s
16日16時 GMT ~ 16日19時 GMT に 確率 30% で一時的に
天気現象弱いしゅう雨
全天の4割程度の積乱雲 雲底高度 610m
16日17時 GMT ~ 16日19時 GMT に徐々に
風向・風速南南西 4m/s
17日2時 GMT ~ 17日5時 GMT に徐々に
風向・風速南 5m/s
17日3時 GMT ~ 17日7時 GMT に一時的に
天気現象弱いしゅう雨
全天の4割程度の積乱雲 雲底高度 610m
TAF EIDW 160500Z 1606/1706 26011KT 9999 FEW016 SCT030
BECMG 1613/1615 23008KT
PROB30 TEMPO 1615/1618 -SHRA SCT020CB
BECMG 1616/1618 20008KT
BECMG 1701/1704 17009KT
TEMPO 1702/1706 -SHRA SCT020CB